sensor_id;sensor_type;location;lat;lon;timestamp;pressure;altitude;pressure_sealevel;temperature;humidity
26112;BME280;13829;48.990;8.346;2023-02-20T00:01:31;101691.91;;;8.69;100.00
26112;BME280;13829;48.990;8.346;2023-02-20T00:03:58;101687.06;;;8.81;100.00
26112;BME280;13829;48.990;8.346;2023-02-20T00:06:26;101687.09;;;8.55;100.00
26112;BME280;13829;48.990;8.346;2023-02-20T00:08:53;101681.31;;;8.65;100.00
26112;BME280;13829;48.990;8.346;2023-02-20T00:11:20;101675.75;;;8.56;100.00
26112;BME280;13829;48.990;8.346;2023-02-20T00:13:48;101676.69;;;8.32;100.00
26112;BME280;13829;48.990;8.346;2023-02-20T00:16:15;101675.06;;;8.36;100.00
26112;BME280;13829;48.990;8.346;2023-02-20T00:18:43;101674.88;;;8.31;100.00
26112;BME280;13829;48.990;8.346;2023-02-20T00:21:10;101674.19;;;8.37;100.00
26112;BME280;13829;48.990;8.346;2023-02-20T00:23:39;101678.34;;;8.30;100.00
26112;BME280;13829;48.990;8.346;2023-02-20T00:26:08;101686.09;;;8.27;100.00
26112;BME280;13829;48.990;8.346;2023-02-20T00:28:37;101693.75;;;8.21;100.00
26112;BME280;13829;48.990;8.346;2023-02-20T00:31:05;101700.66;;;8.19;100.00
26112;BME280;13829;48.990;8.346;2023-02-20T00:33:32;101704.09;;;8.18;100.00
26112;BME280;13829;48.990;8.346;2023-02-20T00:35:59;101712.88;;;8.19;100.00
26112;BME280;13829;48.990;8.346;2023-02-20T00:38:26;101709.34;;;8.18;100.00
26112;BME280;13829;48.990;8.346;2023-02-20T00:40:54;101712.59;;;8.11;100.00
26112;BME280;13829;48.990;8.346;2023-02-20T00:43:21;101709.84;;;8.08;100.00
26112;BME280;13829;48.990;8.346;2023-02-20T00:45:48;101696.66;;;8.05;100.00
26112;BME280;13829;48.990;8.346;2023-02-20T00:48:15;101700.94;;;8.03;100.00
26112;BME280;13829;48.990;8.346;2023-02-20T00:50:42;101699.06;;;7.98;100.00
26112;BME280;13829;48.990;8.346;2023-02-20T00:53:09;101704.91;;;7.91;100.00
26112;BME280;13829;48.990;8.346;2023-02-20T00:55:36;101696.81;;;7.85;100.00
26112;BME280;13829;48.990;8.346;2023-02-20T00:58:04;101694.09;;;7.82;100.00
26112;BME280;13829;48.990;8.346;2023-02-20T01:00:31;101692.19;;;7.78;100.00
26112;BME280;13829;48.990;8.346;2023-02-20T01:02:58;101695.59;;;7.75;100.00
26112;BME280;13829;48.990;8.346;2023-02-20T01:05:24;101689.22;;;7.68;100.00
26112;BME280;13829;48.990;8.346;2023-02-20T01:07:51;101689.13;;;7.65;100.00
26112;BME280;13829;48.990;8.346;2023-02-20T01:10:19;101684.47;;;7.58;100.00
26112;BME280;13829;48.990;8.346;2023-02-20T01:12:46;101684.38;;;7.55;100.00
26112;BME280;13829;48.990;8.346;2023-02-20T01:15:15;101681.63;;;7.52;100.00
26112;BME280;13829;48.990;8.346;2023-02-20T01:17:42;101685.06;;;7.51;100.00
26112;BME280;13829;48.990;8.346;2023-02-20T01:20:10;101682.25;;;7.45;100.00
26112;BME280;13829;48.990;8.346;2023-02-20T01:22:37;101687.34;;;7.42;100.00
26112;BME280;13829;48.990;8.346;2023-02-20T01:25:05;101682.25;;;7.45;100.00
26112;BME280;13829;48.990;8.346;2023-02-20T01:27:32;101676.63;;;7.35;100.00
26112;BME280;13829;48.990;8.346;2023-02-20T01:29:59;101670.75;;;7.41;100.00
26112;BME280;13829;48.990;8.346;2023-02-20T01:32:27;101673.19;;;7.37;100.00
26112;BME280;13829;48.990;8.346;2023-02-20T01:34:54;101674.72;;;7.31;100.00
26112;BME280;13829;48.990;8.346;2023-02-20T01:37:21;101671.06;;;7.26;100.00
26112;BME280;13829;48.990;8.346;2023-02-20T01:39:48;101667.47;;;7.24;100.00
26112;BME280;13829;48.990;8.346;2023-02-20T01:42:19;101659.03;;;7.31;100.00
26112;BME280;13829;48.990;8.346;2023-02-20T01:44:48;101662.84;;;7.17;100.00
26112;BME280;13829;48.990;8.346;2023-02-20T01:47:18;101668.78;;;7.13;100.00
26112;BME280;13829;48.990;8.346;2023-02-20T01:49:51;101666.16;;;7.13;100.00
26112;BME280;13829;48.990;8.346;2023-02-20T01:52:24;101665.47;;;7.17;100.00
26112;BME280;13829;48.990;8.346;2023-02-20T01:54:58;101666.94;;;7.33;100.00
26112;BME280;13829;48.990;8.346;2023-02-20T01:57:32;101665.66;;;7.46;100.00
26112;BME280;13829;48.990;8.346;2023-02-20T02:00:06;101669.97;;;7.44;100.00
26112;BME280;13829;48.990;8.346;2023-02-20T02:02:41;101673.72;;;7.28;100.00
26112;BME280;13829;48.990;8.346;2023-02-20T02:05:12;101666.06;;;7.32;100.00
26112;BME280;13829;48.990;8.346;2023-02-20T02:07:39;101662.13;;;7.21;100.00
26112;BME280;13829;48.990;8.346;2023-02-20T02:10:10;101661.84;;;7.13;100.00
26112;BME280;13829;48.990;8.346;2023-02-20T02:12:41;101653.91;;;7.12;100.00
26112;BME280;13829;48.990;8.346;2023-02-20T02:15:13;101649.22;;;7.03;100.00
26112;BME280;13829;48.990;8.346;2023-02-20T02:18:14;101649.13;;;7.01;100.00
26112;BME280;13829;48.990;8.346;2023-02-20T02:21:21;101641.44;;;7.05;100.00
26112;BME280;13829;48.990;8.346;2023-02-20T02:24:56;101643.66;;;6.95;100.00
26112;BME280;13829;48.990;8.346;2023-02-20T02:28:08;101644.63;;;7.20;100.00
26112;BME280;13829;48.990;8.346;2023-02-20T02:31:17;101629.03;;;7.23;100.00
26112;BME280;13829;48.990;8.346;2023-02-20T02:34:33;101638.63;;;7.23;100.00
26112;BME280;13829;48.990;8.346;2023-02-20T02:37:17;101633.81;;;7.33;100.00
26112;BME280;13829;48.990;8.346;2023-02-20T02:39:53;101625.69;;;7.03;100.00
26112;BME280;13829;48.990;8.346;2023-02-20T02:42:45;101631.03;;;7.06;100.00
26112;BME280;13829;48.990;8.346;2023-02-20T02:45:22;101636.91;;;7.00;100.00
26112;BME280;13829;48.990;8.346;2023-02-20T02:48:00;101642.00;;;6.97;100.00
26112;BME280;13829;48.990;8.346;2023-02-20T02:50:34;101646.03;;;7.12;100.00
26112;BME280;13829;48.990;8.346;2023-02-20T02:53:07;101647.50;;;7.04;100.00
26112;BME280;13829;48.990;8.346;2023-02-20T02:55:35;101645.69;;;7.02;100.00
26112;BME280;13829;48.990;8.346;2023-02-20T02:58:03;101641.59;;;7.09;100.00
26112;BME280;13829;48.990;8.346;2023-02-20T03:00:37;101637.50;;;7.16;100.00
26112;BME280;13829;48.990;8.346;2023-02-20T03:03:10;101639.88;;;7.10;100.00
26112;BME280;13829;48.990;8.346;2023-02-20T03:05:44;101631.78;;;7.04;100.00
26112;BME280;13829;48.990;8.346;2023-02-20T03:08:25;101627.03;;;7.16;100.00
26112;BME280;13829;48.990;8.346;2023-02-20T03:11:01;101628.59;;;7.11;100.00
26112;BME280;13829;48.990;8.346;2023-02-20T03:13:40;101624.66;;;6.99;100.00
26112;BME280;13829;48.990;8.346;2023-02-20T03:16:31;101631.53;;;6.97;100.00
26112;BME280;13829;48.990;8.346;2023-02-20T03:19:08;101628.22;;;7.01;100.00
26112;BME280;13829;48.990;8.346;2023-02-20T03:21:43;101629.91;;;6.99;100.00
26112;BME280;13829;48.990;8.346;2023-02-20T03:24:16;101624.41;;;6.93;100.00
26112;BME280;13829;48.990;8.346;2023-02-20T03:26:47;101631.44;;;6.94;100.00
26112;BME280;13829;48.990;8.346;2023-02-20T03:29:19;101626.81;;;7.10;100.00
26112;BME280;13829;48.990;8.346;2023-02-20T03:31:54;101617.69;;;7.00;100.00
26112;BME280;13829;48.990;8.346;2023-02-20T03:34:41;101620.97;;;6.94;100.00
26112;BME280;13829;48.990;8.346;2023-02-20T03:37:30;101622.22;;;7.04;100.00
26112;BME280;13829;48.990;8.346;2023-02-20T03:40:20;101623.84;;;7.00;100.00
26112;BME280;13829;48.990;8.346;2023-02-20T03:43:13;101608.25;;;7.26;100.00
26112;BME280;13829;48.990;8.346;2023-02-20T03:45:52;101617.16;;;7.31;100.00
26112;BME280;13829;48.990;8.346;2023-02-20T03:48:31;101621.28;;;7.25;100.00
26112;BME280;13829;48.990;8.346;2023-02-20T03:51:00;101617.06;;;7.28;100.00
26112;BME280;13829;48.990;8.346;2023-02-20T03:53:28;101618.47;;;7.20;100.00
26112;BME280;13829;48.990;8.346;2023-02-20T03:56:02;101616.84;;;7.46;100.00
26112;BME280;13829;48.990;8.346;2023-02-20T03:58:36;101610.91;;;7.28;100.00
26112;BME280;13829;48.990;8.346;2023-02-20T04:01:07;101605.88;;;7.32;100.00
26112;BME280;13829;48.990;8.346;2023-02-20T04:03:40;101607.78;;;7.14;100.00
26112;BME280;13829;48.990;8.346;2023-02-20T04:06:10;101613.97;;;7.16;100.00
26112;BME280;13829;48.990;8.346;2023-02-20T04:08:42;101617.69;;;7.23;100.00
26112;BME280;13829;48.990;8.346;2023-02-20T04:11:17;101612.03;;;7.12;100.00
26112;BME280;13829;48.990;8.346;2023-02-20T04:13:48;101618.81;;;7.07;100.00
26112;BME280;13829;48.990;8.346;2023-02-20T04:16:16;101609.03;;;7.24;100.00
26112;BME280;13829;48.990;8.346;2023-02-20T04:18:44;101606.22;;;7.19;100.00
26112;BME280;13829;48.990;8.346;2023-02-20T04:21:19;101606.69;;;7.31;100.00
26112;BME280;13829;48.990;8.346;2023-02-20T04:23:56;101617.53;;;7.42;100.00
26112;BME280;13829;48.990;8.346;2023-02-20T04:26:26;101605.59;;;7.49;100.00
26112;BME280;13829;48.990;8.346;2023-02-20T04:28:53;101617.50;;;7.41;100.00
26112;BME280;13829;48.990;8.346;2023-02-20T04:31:21;101611.25;;;7.37;100.00
26112;BME280;13829;48.990;8.346;2023-02-20T04:33:49;101621.56;;;7.32;100.00
26112;BME280;13829;48.990;8.346;2023-02-20T04:36:16;101629.41;;;7.32;100.00
26112;BME280;13829;48.990;8.346;2023-02-20T04:38:43;101621.50;;;7.31;100.00
26112;BME280;13829;48.990;8.346;2023-02-20T04:41:11;101624.28;;;7.35;100.00
26112;BME280;13829;48.990;8.346;2023-02-20T04:43:39;101630.75;;;7.45;100.00
26112;BME280;13829;48.990;8.346;2023-02-20T04:46:06;101624.53;;;7.19;100.00
26112;BME280;13829;48.990;8.346;2023-02-20T04:48:33;101623.03;;;7.26;100.00
26112;BME280;13829;48.990;8.346;2023-02-20T04:51:00;101623.66;;;7.18;100.00
26112;BME280;13829;48.990;8.346;2023-02-20T04:53:27;101629.91;;;6.99;100.00
26112;BME280;13829;48.990;8.346;2023-02-20T04:55:54;101621.81;;;7.16;100.00
26112;BME280;13829;48.990;8.346;2023-02-20T04:58:21;101629.63;;;7.14;100.00
26112;BME280;13829;48.990;8.346;2023-02-20T05:00:49;101631.97;;;7.31;100.00
26112;BME280;13829;48.990;8.346;2023-02-20T05:03:16;101626.31;;;7.43;100.00
26112;BME280;13829;48.990;8.346;2023-02-20T05:05:43;101634.41;;;7.26;100.00
26112;BME280;13829;48.990;8.346;2023-02-20T05:08:10;101636.47;;;6.90;100.00
26112;BME280;13829;48.990;8.346;2023-02-20T05:10:37;101639.63;;;6.81;100.00
26112;BME280;13829;48.990;8.346;2023-02-20T05:13:04;101626.66;;;6.84;100.00
26112;BME280;13829;48.990;8.346;2023-02-20T05:15:31;101624.28;;;6.90;100.00
26112;BME280;13829;48.990;8.346;2023-02-20T05:18:00;101620.19;;;6.74;100.00
26112;BME280;13829;48.990;8.346;2023-02-20T05:20:27;101620.13;;;6.73;100.00
26112;BME280;13829;48.990;8.346;2023-02-20T05:23:08;101625.56;;;6.79;100.00
26112;BME280;13829;48.990;8.346;2023-02-20T05:25:35;101620.56;;;7.06;100.00
26112;BME280;13829;48.990;8.346;2023-02-20T05:28:02;101619.78;;;7.09;100.00
26112;BME280;13829;48.990;8.346;2023-02-20T05:30:29;101622.81;;;6.97;100.00
26112;BME280;13829;48.990;8.346;2023-02-20T05:32:56;101615.38;;;7.08;100.00
26112;BME280;13829;48.990;8.346;2023-02-20T05:35:24;101614.31;;;7.02;100.00
26112;BME280;13829;48.990;8.346;2023-02-20T05:37:51;101613.81;;;6.90;100.00
26112;BME280;13829;48.990;8.346;2023-02-20T05:40:18;101614.06;;;6.96;100.00
26112;BME280;13829;48.990;8.346;2023-02-20T05:42:45;101609.56;;;6.92;100.00
26112;BME280;13829;48.990;8.346;2023-02-20T05:45:13;101608.72;;;6.93;100.00
26112;BME280;13829;48.990;8.346;2023-02-20T05:47:40;101613.81;;;6.90;100.00
26112;BME280;13829;48.990;8.346;2023-02-20T05:50:07;101613.97;;;6.93;100.00
26112;BME280;13829;48.990;8.346;2023-02-20T05:52:36;101607.28;;;7.01;100.00
26112;BME280;13829;48.990;8.346;2023-02-20T05:55:03;101610.38;;;6.91;100.00
26112;BME280;13829;48.990;8.346;2023-02-20T05:57:30;101610.38;;;6.91;100.00
26112;BME280;13829;48.990;8.346;2023-02-20T05:59:57;101609.66;;;6.95;100.00
26112;BME280;13829;48.990;8.346;2023-02-20T06:02:24;101611.19;;;6.90;100.00
26112;BME280;13829;48.990;8.346;2023-02-20T06:04:51;101608.59;;;7.13;100.00
26112;BME280;13829;48.990;8.346;2023-02-20T06:07:18;101602.78;;;6.97;100.00
26112;BME280;13829;48.990;8.346;2023-02-20T06:09:46;101607.91;;;6.94;100.00
26112;BME280;13829;48.990;8.346;2023-02-20T06:12:14;101607.41;;;6.82;100.00
26112;BME280;13829;48.990;8.346;2023-02-20T06:14:41;101604.31;;;6.92;100.00
26112;BME280;13829;48.990;8.346;2023-02-20T06:17:08;101608.97;;;6.99;100.00
26112;BME280;13829;48.990;8.346;2023-02-20T06:19:35;101607.47;;;7.06;100.00
26112;BME280;13829;48.990;8.346;2023-02-20T06:22:02;101604.38;;;6.94;100.00
26112;BME280;13829;48.990;8.346;2023-02-20T06:24:29;101605.03;;;6.88;100.00
26112;BME280;13829;48.990;8.346;2023-02-20T06:26:57;101604.44;;;6.73;100.00
26112;BME280;13829;48.990;8.346;2023-02-20T06:29:24;101599.06;;;6.69;100.00
26112;BME280;13829;48.990;8.346;2023-02-20T06:31:51;101599.22;;;6.73;100.00
26112;BME280;13829;48.990;8.346;2023-02-20T06:34:18;101606.84;;;6.89;100.00
26112;BME280;13829;48.990;8.346;2023-02-20T06:36:45;101600.09;;;6.73;100.00
26112;BME280;13829;48.990;8.346;2023-02-20T06:39:13;101606.16;;;6.95;100.00
26112;BME280;13829;48.990;8.346;2023-02-20T06:41:40;101602.72;;;6.96;100.00
26112;BME280;13829;48.990;8.346;2023-02-20T06:44:09;101599.56;;;6.82;100.00
26112;BME280;13829;48.990;8.346;2023-02-20T06:46:36;101603.78;;;7.01;100.00
26112;BME280;13829;48.990;8.346;2023-02-20T06:49:02;101609.31;;;6.86;100.00
26112;BME280;13829;48.990;8.346;2023-02-20T06:51:32;101615.75;;;6.94;100.00
26112;BME280;13829;48.990;8.346;2023-02-20T06:54:01;101612.16;;;6.92;100.00
26112;BME280;13829;48.990;8.346;2023-02-20T06:56:31;101610.06;;;6.83;100.00
26112;BME280;13829;48.990;8.346;2023-02-20T06:58:59;101612.16;;;6.92;100.00
26112;BME280;13829;48.990;8.346;2023-02-20T07:01:30;101611.75;;;7.04;100.00
26112;BME280;13829;48.990;8.346;2023-02-20T07:04:04;101603.22;;;7.08;100.00
26112;BME280;13829;48.990;8.346;2023-02-20T07:06:31;101602.28;;;7.08;100.00
26112;BME280;13829;48.990;8.346;2023-02-20T07:08:58;101611.16;;;7.11;100.00
26112;BME280;13829;48.990;8.346;2023-02-20T07:11:25;101607.66;;;7.33;100.00
26112;BME280;13829;48.990;8.346;2023-02-20T07:13:52;101606.59;;;7.28;100.00
26112;BME280;13829;48.990;8.346;2023-02-20T07:16:19;101608.72;;;7.39;100.00
26112;BME280;13829;48.990;8.346;2023-02-20T07:18:47;101608.72;;;7.39;100.00
26112;BME280;13829;48.990;8.346;2023-02-20T07:21:14;101610.94;;;7.76;100.00
26112;BME280;13829;48.990;8.346;2023-02-20T07:23:43;101613.63;;;7.78;100.00
26112;BME280;13829;48.990;8.346;2023-02-20T07:26:17;101607.47;;;8.53;97.21
26112;BME280;13829;48.990;8.346;2023-02-20T07:28:45;101614.81;;;9.81;92.10
26112;BME280;13829;48.990;8.346;2023-02-20T07:31:12;101616.53;;;10.82;86.46
26112;BME280;13829;48.990;8.346;2023-02-20T07:33:39;101617.06;;;11.91;78.28
26112;BME280;13829;48.990;8.346;2023-02-20T07:36:09;101610.50;;;12.67;70.92
26112;BME280;13829;48.990;8.346;2023-02-20T07:38:37;101616.97;;;12.91;68.32
26112;BME280;13829;48.990;8.346;2023-02-20T07:41:05;101624.94;;;13.55;64.20
26112;BME280;13829;48.990;8.346;2023-02-20T07:43:32;101622.84;;;14.03;62.31
26112;BME280;13829;48.990;8.346;2023-02-20T07:46:00;101629.03;;;14.05;61.59
26112;BME280;13829;48.990;8.346;2023-02-20T07:48:27;101608.94;;;14.26;60.17
26112;BME280;13829;48.990;8.346;2023-02-20T07:50:53;101617.81;;;14.31;59.93
26112;BME280;13829;48.990;8.346;2023-02-20T07:53:22;101620.78;;;14.68;58.38
26112;BME280;13829;48.990;8.346;2023-02-20T07:55:48;101624.34;;;14.68;57.61
26112;BME280;13829;48.990;8.346;2023-02-20T07:58:15;101622.75;;;14.95;57.48
26112;BME280;13829;48.990;8.346;2023-02-20T08:00:42;101626.34;;;15.08;56.44
26112;BME280;13829;48.990;8.346;2023-02-20T08:03:09;101627.41;;;15.38;56.64
26112;BME280;13829;48.990;8.346;2023-02-20T08:05:36;101629.63;;;14.72;57.03
26112;BME280;13829;48.990;8.346;2023-02-20T08:08:04;101627.94;;;14.78;57.77
26112;BME280;13829;48.990;8.346;2023-02-20T08:10:32;101623.69;;;15.04;57.83
26112;BME280;13829;48.990;8.346;2023-02-20T08:12:59;101620.06;;;14.88;56.31
26112;BME280;13829;48.990;8.346;2023-02-20T08:15:27;101624.75;;;14.16;59.97
26112;BME280;13829;48.990;8.346;2023-02-20T08:17:54;101629.88;;;14.02;61.74
26112;BME280;13829;48.990;8.346;2023-02-20T08:20:21;101631.38;;;13.77;61.19
26112;BME280;13829;48.990;8.346;2023-02-20T08:22:49;101629.06;;;13.36;64.91
26112;BME280;13829;48.990;8.346;2023-02-20T08:25:17;101625.47;;;13.29;64.12
26112;BME280;13829;48.990;8.346;2023-02-20T08:27:47;101621.41;;;12.93;66.40
26112;BME280;13829;48.990;8.346;2023-02-20T08:30:20;101612.09;;;12.59;68.16
26112;BME280;13829;48.990;8.346;2023-02-20T08:32:49;101617.72;;;12.27;71.16
26112;BME280;13829;48.990;8.346;2023-02-20T08:35:16;101619.56;;;11.83;71.57
26112;BME280;13829;48.990;8.346;2023-02-20T08:37:44;101613.06;;;11.67;74.32
26112;BME280;13829;48.990;8.346;2023-02-20T08:40:12;101614.44;;;11.47;75.55
26112;BME280;13829;48.990;8.346;2023-02-20T08:42:39;101611.41;;;11.30;78.00
26112;BME280;13829;48.990;8.346;2023-02-20T08:45:09;101622.16;;;11.39;77.05
26112;BME280;13829;48.990;8.346;2023-02-20T08:47:37;101604.34;;;11.27;77.79
26112;BME280;13829;48.990;8.346;2023-02-20T08:50:05;101605.28;;;11.29;77.42
26112;BME280;13829;48.990;8.346;2023-02-20T08:52:32;101604.25;;;11.22;78.66
26112;BME280;13829;48.990;8.346;2023-02-20T08:54:58;101605.09;;;11.20;79.53
26112;BME280;13829;48.990;8.346;2023-02-20T08:57:26;101602.84;;;11.40;79.12
26112;BME280;13829;48.990;8.346;2023-02-20T08:59:53;101597.91;;;11.55;78.78
26112;BME280;13829;48.990;8.346;2023-02-20T09:02:23;101597.16;;;11.63;78.37
26112;BME280;13829;48.990;8.346;2023-02-20T09:04:53;101590.28;;;11.69;77.81
26112;BME280;13829;48.990;8.346;2023-02-20T09:07:21;101595.63;;;11.74;75.63
26112;BME280;13829;48.990;8.346;2023-02-20T09:09:48;101583.97;;;11.61;75.76
26112;BME280;13829;48.990;8.346;2023-02-20T09:12:16;101583.94;;;11.59;76.20
26112;BME280;13829;48.990;8.346;2023-02-20T09:14:43;101586.00;;;11.30;76.00
26112;BME280;13829;48.990;8.346;2023-02-20T09:17:10;101594.66;;;11.26;76.82
26112;BME280;13829;48.990;8.346;2023-02-20T09:19:38;101592.00;;;11.24;78.39
26112;BME280;13829;48.990;8.346;2023-02-20T09:22:05;101585.91;;;11.27;78.54
26112;BME280;13829;48.990;8.346;2023-02-20T09:24:32;101586.97;;;11.35;77.50
26112;BME280;13829;48.990;8.346;2023-02-20T09:27:00;101585.38;;;11.43;76.60
26112;BME280;13829;48.990;8.346;2023-02-20T09:29:28;101577.56;;;11.48;74.60
26112;BME280;13829;48.990;8.346;2023-02-20T09:31:55;101587.09;;;11.41;74.86
26112;BME280;13829;48.990;8.346;2023-02-20T09:34:22;101586.28;;;11.44;75.84
26112;BME280;13829;48.990;8.346;2023-02-20T09:36:52;101579.31;;;11.48;76.83
26112;BME280;13829;48.990;8.346;2023-02-20T09:39:19;101580.47;;;11.62;75.75
26112;BME280;13829;48.990;8.346;2023-02-20T09:42:04;101567.97;;;11.50;74.67
26112;BME280;13829;48.990;8.346;2023-02-20T09:44:43;101560.69;;;11.38;75.11
26112;BME280;13829;48.990;8.346;2023-02-20T09:47:50;101565.97;;;11.40;75.99
26112;BME280;13829;48.990;8.346;2023-02-20T09:50:30;101551.25;;;11.50;76.78
26112;BME280;13829;48.990;8.346;2023-02-20T09:53:16;101558.53;;;11.62;76.47
26112;BME280;13829;48.990;8.346;2023-02-20T09:55:45;101546.81;;;11.47;74.37
26112;BME280;13829;48.990;8.346;2023-02-20T09:58:22;101554.72;;;11.49;76.18
26112;BME280;13829;48.990;8.346;2023-02-20T10:00:55;101545.81;;;11.40;76.58
26112;BME280;13829;48.990;8.346;2023-02-20T10:03:30;101546.94;;;11.53;76.85
26112;BME280;13829;48.990;8.346;2023-02-20T10:06:13;101547.00;;;11.56;74.24
26112;BME280;13829;48.990;8.346;2023-02-20T10:08:43;101539.97;;;11.55;75.40
26112;BME280;13829;48.990;8.346;2023-02-20T10:11:20;101536.63;;;11.66;74.29
26112;BME280;13829;48.990;8.346;2023-02-20T10:14:05;101532.25;;;11.66;74.82
26112;BME280;13829;48.990;8.346;2023-02-20T10:16:48;101537.03;;;11.89;73.78
26112;BME280;13829;48.990;8.346;2023-02-20T10:19:27;101532.69;;;11.91;73.76
26112;BME280;13829;48.990;8.346;2023-02-20T10:22:04;101528.28;;;11.91;72.65
26112;BME280;13829;48.990;8.346;2023-02-20T10:24:49;101535.13;;;11.80;73.44
26112;BME280;13829;48.990;8.346;2023-02-20T10:27:30;101527.63;;;11.54;73.38
26112;BME280;13829;48.990;8.346;2023-02-20T10:30:02;101529.28;;;11.49;74.46
26112;BME280;13829;48.990;8.346;2023-02-20T10:32:39;101527.56;;;11.51;72.98
26112;BME280;13829;48.990;8.346;2023-02-20T10:35:13;101531.28;;;11.63;74.19
26112;BME280;13829;48.990;8.346;2023-02-20T10:37:47;101529.75;;;11.74;73.43
26112;BME280;13829;48.990;8.346;2023-02-20T10:40:24;101529.47;;;11.60;74.31
26112;BME280;13829;48.990;8.346;2023-02-20T10:42:58;101531.47;;;11.72;72.78
26112;BME280;13829;48.990;8.346;2023-02-20T10:45:38;101529.00;;;11.81;73.09
26112;BME280;13829;48.990;8.346;2023-02-20T10:48:10;101532.69;;;11.91;72.27
26112;BME280;13829;48.990;8.346;2023-02-20T10:50:46;101522.81;;;11.79;72.95
26112;BME280;13829;48.990;8.346;2023-02-20T10:53:27;101516.53;;;11.72;74.03
26112;BME280;13829;48.990;8.346;2023-02-20T10:56:07;101520.16;;;11.78;73.53
26112;BME280;13829;48.990;8.346;2023-02-20T10:58:39;101520.34;;;11.87;73.12
26112;BME280;13829;48.990;8.346;2023-02-20T11:01:11;101510.66;;;11.87;73.94
26112;BME280;13829;48.990;8.346;2023-02-20T11:03:46;101517.75;;;11.91;74.14
26112;BME280;13829;48.990;8.346;2023-02-20T11:06:22;101518.00;;;12.04;73.12
26112;BME280;13829;48.990;8.346;2023-02-20T11:08:51;101513.47;;;11.97;73.11
26112;BME280;13829;48.990;8.346;2023-02-20T11:11:30;101516.22;;;12.03;72.36
26112;BME280;13829;48.990;8.346;2023-02-20T11:13:58;101509.00;;;11.93;72.94
26112;BME280;13829;48.990;8.346;2023-02-20T11:16:31;101506.59;;;12.05;72.85
26112;BME280;13829;48.990;8.346;2023-02-20T11:19:12;101501.31;;;12.05;72.70
26112;BME280;13829;48.990;8.346;2023-02-20T11:21:46;101504.91;;;12.09;73.57
26112;BME280;13829;48.990;8.346;2023-02-20T11:24:33;101499.66;;;12.10;73.61
26112;BME280;13829;48.990;8.346;2023-02-20T11:27:07;101493.66;;;12.20;73.05
26112;BME280;13829;48.990;8.346;2023-02-20T11:29:47;101494.78;;;12.36;72.72
26112;BME280;13829;48.990;8.346;2023-02-20T11:32:39;101481.53;;;12.33;73.93
26112;BME280;13829;48.990;8.346;2023-02-20T11:35:27;101477.97;;;12.30;72.55
26112;BME280;13829;48.990;8.346;2023-02-20T11:38:28;101470.25;;;12.44;74.10
26112;BME280;13829;48.990;8.346;2023-02-20T11:41:26;101462.50;;;12.53;71.42
26112;BME280;13829;48.990;8.346;2023-02-20T11:44:24;101467.66;;;12.45;71.69
26112;BME280;13829;48.990;8.346;2023-02-20T11:47:19;101456.09;;;12.37;71.41
26112;BME280;13829;48.990;8.346;2023-02-20T11:49:48;101441.22;;;12.44;72.73
26112;BME280;13829;48.990;8.346;2023-02-20T11:52:17;101447.63;;;12.63;71.92
26112;BME280;13829;48.990;8.346;2023-02-20T11:54:46;101437.22;;;12.72;71.38
26112;BME280;13829;48.990;8.346;2023-02-20T11:57:23;101433.00;;;12.86;71.23
26112;BME280;13829;48.990;8.346;2023-02-20T12:00:10;101422.31;;;12.77;69.23
26112;BME280;13829;48.990;8.346;2023-02-20T12:02:49;101421.50;;;12.83;69.37
26112;BME280;13829;48.990;8.346;2023-02-20T12:05:17;101411.78;;;12.80;70.25
26112;BME280;13829;48.990;8.346;2023-02-20T12:07:56;101409.88;;;12.67;70.02
26112;BME280;13829;48.990;8.346;2023-02-20T12:10:39;101413.34;;;12.63;69.78
26112;BME280;13829;48.990;8.346;2023-02-20T12:13:13;101401.97;;;12.68;69.52
26112;BME280;13829;48.990;8.346;2023-02-20T12:15:48;101399.41;;;12.73;70.78
26112;BME280;13829;48.990;8.346;2023-02-20T12:18:47;101399.41;;;12.73;70.15
26112;BME280;13829;48.990;8.346;2023-02-20T12:21:29;101397.81;;;12.87;68.65
26112;BME280;13829;48.990;8.346;2023-02-20T12:24:29;101394.13;;;12.73;69.88
26112;BME280;13829;48.990;8.346;2023-02-20T12:27:13;101387.19;;;12.83;70.90
26112;BME280;13829;48.990;8.346;2023-02-20T12:29:52;101374.22;;;13.04;68.89
26112;BME280;13829;48.990;8.346;2023-02-20T12:32:38;101377.69;;;13.00;70.36
26112;BME280;13829;48.990;8.346;2023-02-20T12:35:28;101378.69;;;13.10;68.77
26112;BME280;13829;48.990;8.346;2023-02-20T12:38:21;101364.63;;;13.14;67.96
26112;BME280;13829;48.990;8.346;2023-02-20T12:44:25;101348.97;;;13.33;68.76
26112;BME280;13829;48.990;8.346;2023-02-20T12:47:04;101341.03;;;13.31;68.22
26112;BME280;13829;48.990;8.346;2023-02-20T12:49:57;101346.25;;;13.25;67.63
26112;BME280;13829;48.990;8.346;2023-02-20T12:52:47;101340.00;;;13.18;68.47
26112;BME280;13829;48.990;8.346;2023-02-20T12:55:25;101337.44;;;13.26;67.91
26112;BME280;13829;48.990;8.346;2023-02-20T12:58:09;101333.06;;;13.30;67.55
26112;BME280;13829;48.990;8.346;2023-02-20T13:00:44;101324.47;;;13.49;67.02
26112;BME280;13829;48.990;8.346;2023-02-20T13:03:18;101324.38;;;13.37;67.71
26112;BME280;13829;48.990;8.346;2023-02-20T13:05:49;101327.06;;;13.46;67.66
26112;BME280;13829;48.990;8.346;2023-02-20T13:08:26;101325.28;;;13.42;67.14
26112;BME280;13829;48.990;8.346;2023-02-20T13:10:57;101305.81;;;13.35;66.40
26112;BME280;13829;48.990;8.346;2023-02-20T13:13:31;101315.59;;;13.41;67.31
26112;BME280;13829;48.990;8.346;2023-02-20T13:16:07;101306.81;;;13.45;67.57
26112;BME280;13829;48.990;8.346;2023-02-20T13:18:42;101309.53;;;13.53;66.33
26112;BME280;13829;48.990;8.346;2023-02-20T13:21:20;101298.13;;;13.65;65.33
26112;BME280;13829;48.990;8.346;2023-02-20T13:23:48;101306.94;;;13.62;65.79